sensor_id;sensor_type;location;lat;lon;timestamp;P1;durP1;ratioP1;P2;durP2;ratioP2
49890;SDS011;35780;55.568;37.492;2022-07-09T00:02:14;13.73;;;7.45;;
49890;SDS011;35780;55.568;37.492;2022-07-09T00:04:39;11.38;;;6.57;;
49890;SDS011;35780;55.568;37.492;2022-07-09T00:07:05;11.10;;;7.35;;
49890;SDS011;35780;55.568;37.492;2022-07-09T00:09:30;10.05;;;6.03;;
49890;SDS011;35780;55.568;37.492;2022-07-09T00:11:56;11.38;;;6.55;;
49890;SDS011;35780;55.568;37.492;2022-07-09T00:14:22;9.73;;;6.00;;
49890;SDS011;35780;55.568;37.492;2022-07-09T00:16:47;10.65;;;5.97;;
49890;SDS011;35780;55.568;37.492;2022-07-09T00:19:13;10.75;;;6.10;;
49890;SDS011;35780;55.568;37.492;2022-07-09T00:21:39;7.90;;;6.20;;
49890;SDS011;35780;55.568;37.492;2022-07-09T00:24:05;10.45;;;7.53;;
49890;SDS011;35780;55.568;37.492;2022-07-09T00:26:31;9.48;;;6.32;;
49890;SDS011;35780;55.568;37.492;2022-07-09T00:28:56;9.13;;;6.63;;
49890;SDS011;35780;55.568;37.492;2022-07-09T00:31:22;10.32;;;7.35;;
49890;SDS011;35780;55.568;37.492;2022-07-09T00:33:48;11.35;;;6.60;;
49890;SDS011;35780;55.568;37.492;2022-07-09T00:36:13;9.35;;;6.60;;
49890;SDS011;35780;55.568;37.492;2022-07-09T00:38:39;9.02;;;7.05;;
49890;SDS011;35780;55.568;37.492;2022-07-09T00:41:04;13.13;;;6.35;;
49890;SDS011;35780;55.568;37.492;2022-07-09T00:43:30;15.48;;;6.63;;
49890;SDS011;35780;55.568;37.492;2022-07-09T00:45:56;11.25;;;6.00;;
49890;SDS011;35780;55.568;37.492;2022-07-09T00:48:21;12.02;;;5.90;;
49890;SDS011;35780;55.568;37.492;2022-07-09T00:50:47;16.45;;;6.53;;
49890;SDS011;35780;55.568;37.492;2022-07-09T00:53:13;7.75;;;6.07;;
49890;SDS011;35780;55.568;37.492;2022-07-09T00:55:41;8.23;;;6.38;;
49890;SDS011;35780;55.568;37.492;2022-07-09T00:58:08;12.45;;;5.28;;
49890;SDS011;35780;55.568;37.492;2022-07-09T01:00:34;8.57;;;5.13;;
49890;SDS011;35780;55.568;37.492;2022-07-09T01:03:00;10.32;;;5.47;;
49890;SDS011;35780;55.568;37.492;2022-07-09T01:05:26;11.82;;;5.50;;
49890;SDS011;35780;55.568;37.492;2022-07-09T01:07:52;10.00;;;4.95;;
49890;SDS011;35780;55.568;37.492;2022-07-09T01:10:18;8.90;;;5.00;;
49890;SDS011;35780;55.568;37.492;2022-07-09T01:12:44;7.72;;;4.80;;
49890;SDS011;35780;55.568;37.492;2022-07-09T01:15:10;10.77;;;4.82;;
49890;SDS011;35780;55.568;37.492;2022-07-09T01:17:39;7.20;;;4.82;;
49890;SDS011;35780;55.568;37.492;2022-07-09T01:20:05;10.13;;;4.30;;
49890;SDS011;35780;55.568;37.492;2022-07-09T01:22:32;12.52;;;6.30;;
49890;SDS011;35780;55.568;37.492;2022-07-09T01:24:59;7.80;;;5.00;;
49890;SDS011;35780;55.568;37.492;2022-07-09T01:27:26;7.93;;;4.88;;
49890;SDS011;35780;55.568;37.492;2022-07-09T01:29:51;10.35;;;5.55;;
49890;SDS011;35780;55.568;37.492;2022-07-09T01:32:17;6.90;;;4.65;;
49890;SDS011;35780;55.568;37.492;2022-07-09T01:34:42;7.93;;;5.50;;
49890;SDS011;35780;55.568;37.492;2022-07-09T01:37:08;10.45;;;4.60;;
49890;SDS011;35780;55.568;37.492;2022-07-09T01:39:34;11.20;;;5.47;;
49890;SDS011;35780;55.568;37.492;2022-07-09T01:42:00;8.07;;;5.10;;
49890;SDS011;35780;55.568;37.492;2022-07-09T01:44:26;6.18;;;4.20;;
49890;SDS011;35780;55.568;37.492;2022-07-09T01:46:52;8.70;;;3.95;;
49890;SDS011;35780;55.568;37.492;2022-07-09T01:49:17;7.53;;;4.10;;
49890;SDS011;35780;55.568;37.492;2022-07-09T01:51:43;7.93;;;3.60;;
49890;SDS011;35780;55.568;37.492;2022-07-09T01:54:08;6.13;;;5.03;;
49890;SDS011;35780;55.568;37.492;2022-07-09T01:56:34;8.23;;;4.75;;
49890;SDS011;35780;55.568;37.492;2022-07-09T01:59:00;12.85;;;7.22;;
49890;SDS011;35780;55.568;37.492;2022-07-09T02:01:26;16.10;;;7.35;;
49890;SDS011;35780;55.568;37.492;2022-07-09T02:03:52;10.70;;;5.63;;
49890;SDS011;35780;55.568;37.492;2022-07-09T02:06:17;12.95;;;6.90;;
49890;SDS011;35780;55.568;37.492;2022-07-09T02:08:43;10.02;;;4.90;;
49890;SDS011;35780;55.568;37.492;2022-07-09T02:11:09;8.20;;;4.50;;
49890;SDS011;35780;55.568;37.492;2022-07-09T02:13:35;9.18;;;4.50;;
49890;SDS011;35780;55.568;37.492;2022-07-09T02:16:21;10.65;;;4.30;;
49890;SDS011;35780;55.568;37.492;2022-07-09T02:18:46;6.32;;;4.53;;
49890;SDS011;35780;55.568;37.492;2022-07-09T02:21:12;6.63;;;3.22;;
49890;SDS011;35780;55.568;37.492;2022-07-09T02:23:37;8.25;;;3.75;;
49890;SDS011;35780;55.568;37.492;2022-07-09T02:26:03;6.20;;;3.05;;
49890;SDS011;35780;55.568;37.492;2022-07-09T02:28:29;5.82;;;3.08;;
49890;SDS011;35780;55.568;37.492;2022-07-09T02:30:55;6.65;;;3.67;;
49890;SDS011;35780;55.568;37.492;2022-07-09T02:33:21;7.25;;;4.60;;
49890;SDS011;35780;55.568;37.492;2022-07-09T02:35:47;10.35;;;5.30;;
49890;SDS011;35780;55.568;37.492;2022-07-09T02:38:13;9.52;;;4.30;;
49890;SDS011;35780;55.568;37.492;2022-07-09T02:40:39;9.43;;;3.33;;
49890;SDS011;35780;55.568;37.492;2022-07-09T02:43:05;7.15;;;4.07;;
49890;SDS011;35780;55.568;37.492;2022-07-09T02:45:30;10.57;;;4.60;;
49890;SDS011;35780;55.568;37.492;2022-07-09T02:47:56;8.77;;;4.40;;
49890;SDS011;35780;55.568;37.492;2022-07-09T02:50:21;8.73;;;4.63;;
49890;SDS011;35780;55.568;37.492;2022-07-09T02:52:47;9.00;;;4.07;;
49890;SDS011;35780;55.568;37.492;2022-07-09T02:55:13;10.80;;;5.18;;
49890;SDS011;35780;55.568;37.492;2022-07-09T02:57:38;6.93;;;4.10;;
49890;SDS011;35780;55.568;37.492;2022-07-09T03:00:04;8.68;;;4.75;;
49890;SDS011;35780;55.568;37.492;2022-07-09T03:02:30;8.48;;;4.60;;
49890;SDS011;35780;55.568;37.492;2022-07-09T03:04:56;12.35;;;5.28;;
49890;SDS011;35780;55.568;37.492;2022-07-09T03:07:22;8.68;;;5.45;;
49890;SDS011;35780;55.568;37.492;2022-07-09T03:09:48;21.17;;;6.85;;
49890;SDS011;35780;55.568;37.492;2022-07-09T03:12:14;23.05;;;7.90;;
49890;SDS011;35780;55.568;37.492;2022-07-09T03:14:39;24.55;;;7.65;;
49890;SDS011;35780;55.568;37.492;2022-07-09T03:17:05;15.02;;;6.50;;
49890;SDS011;35780;55.568;37.492;2022-07-09T03:19:31;12.05;;;5.88;;
49890;SDS011;35780;55.568;37.492;2022-07-09T03:21:56;11.45;;;7.22;;
49890;SDS011;35780;55.568;37.492;2022-07-09T03:24:22;12.02;;;7.68;;
49890;SDS011;35780;55.568;37.492;2022-07-09T03:26:48;20.27;;;7.55;;
49890;SDS011;35780;55.568;37.492;2022-07-09T03:29:14;12.20;;;7.43;;
49890;SDS011;35780;55.568;37.492;2022-07-09T03:31:39;12.45;;;5.80;;
49890;SDS011;35780;55.568;37.492;2022-07-09T03:34:05;12.73;;;7.65;;
49890;SDS011;35780;55.568;37.492;2022-07-09T03:36:31;21.20;;;10.05;;
49890;SDS011;35780;55.568;37.492;2022-07-09T03:38:57;17.27;;;11.48;;
49890;SDS011;35780;55.568;37.492;2022-07-09T03:41:23;22.58;;;10.50;;
49890;SDS011;35780;55.568;37.492;2022-07-09T03:43:48;15.27;;;9.90;;
49890;SDS011;35780;55.568;37.492;2022-07-09T03:46:14;22.92;;;10.80;;
49890;SDS011;35780;55.568;37.492;2022-07-09T03:48:40;21.55;;;11.80;;
49890;SDS011;35780;55.568;37.492;2022-07-09T03:51:05;22.25;;;11.00;;
49890;SDS011;35780;55.568;37.492;2022-07-09T03:53:31;21.98;;;10.75;;
49890;SDS011;35780;55.568;37.492;2022-07-09T03:55:57;19.98;;;9.60;;
49890;SDS011;35780;55.568;37.492;2022-07-09T03:58:23;16.13;;;9.90;;
49890;SDS011;35780;55.568;37.492;2022-07-09T04:00:48;23.05;;;10.30;;
49890;SDS011;35780;55.568;37.492;2022-07-09T04:03:14;23.13;;;10.40;;
49890;SDS011;35780;55.568;37.492;2022-07-09T04:05:39;17.60;;;9.77;;
49890;SDS011;35780;55.568;37.492;2022-07-09T04:08:06;13.13;;;8.88;;
49890;SDS011;35780;55.568;37.492;2022-07-09T04:10:32;18.67;;;9.35;;
49890;SDS011;35780;55.568;37.492;2022-07-09T04:12:58;19.98;;;9.15;;
49890;SDS011;35780;55.568;37.492;2022-07-09T04:15:23;19.48;;;9.82;;
49890;SDS011;35780;55.568;37.492;2022-07-09T04:17:49;19.50;;;9.05;;
49890;SDS011;35780;55.568;37.492;2022-07-09T04:20:15;11.52;;;8.23;;
49890;SDS011;35780;55.568;37.492;2022-07-09T04:22:40;17.92;;;8.65;;
49890;SDS011;35780;55.568;37.492;2022-07-09T04:25:06;15.98;;;9.45;;
49890;SDS011;35780;55.568;37.492;2022-07-09T04:27:32;15.88;;;9.73;;
49890;SDS011;35780;55.568;37.492;2022-07-09T04:29:59;26.27;;;8.38;;
49890;SDS011;35780;55.568;37.492;2022-07-09T04:32:24;12.52;;;8.23;;
49890;SDS011;35780;55.568;37.492;2022-07-09T04:34:50;20.08;;;8.77;;
49890;SDS011;35780;55.568;37.492;2022-07-09T04:37:16;19.15;;;9.95;;
49890;SDS011;35780;55.568;37.492;2022-07-09T04:39:41;11.00;;;6.85;;
49890;SDS011;35780;55.568;37.492;2022-07-09T04:42:07;16.13;;;6.95;;
49890;SDS011;35780;55.568;37.492;2022-07-09T04:44:34;9.57;;;6.10;;
49890;SDS011;35780;55.568;37.492;2022-07-09T04:47:00;11.40;;;6.90;;
49890;SDS011;35780;55.568;37.492;2022-07-09T04:49:25;12.95;;;7.18;;
49890;SDS011;35780;55.568;37.492;2022-07-09T04:51:51;15.38;;;6.88;;
49890;SDS011;35780;55.568;37.492;2022-07-09T04:54:17;12.65;;;7.20;;
49890;SDS011;35780;55.568;37.492;2022-07-09T04:56:42;18.20;;;8.30;;
49890;SDS011;35780;55.568;37.492;2022-07-09T04:59:08;14.20;;;7.40;;
49890;SDS011;35780;55.568;37.492;2022-07-09T05:01:34;12.93;;;6.47;;
49890;SDS011;35780;55.568;37.492;2022-07-09T05:03:59;14.05;;;5.90;;
49890;SDS011;35780;55.568;37.492;2022-07-09T05:06:25;10.52;;;6.38;;
49890;SDS011;35780;55.568;37.492;2022-07-09T05:08:51;12.60;;;5.88;;
49890;SDS011;35780;55.568;37.492;2022-07-09T05:11:16;10.57;;;5.85;;
49890;SDS011;35780;55.568;37.492;2022-07-09T05:13:42;18.02;;;5.80;;
49890;SDS011;35780;55.568;37.492;2022-07-09T05:16:08;11.40;;;4.50;;
49890;SDS011;35780;55.568;37.492;2022-07-09T05:18:34;7.68;;;4.50;;
49890;SDS011;35780;55.568;37.492;2022-07-09T05:21:01;9.55;;;5.00;;
49890;SDS011;35780;55.568;37.492;2022-07-09T05:23:26;15.07;;;4.80;;
49890;SDS011;35780;55.568;37.492;2022-07-09T05:25:52;8.82;;;4.63;;
49890;SDS011;35780;55.568;37.492;2022-07-09T05:28:18;7.22;;;3.40;;
49890;SDS011;35780;55.568;37.492;2022-07-09T05:30:44;5.47;;;3.40;;
49890;SDS011;35780;55.568;37.492;2022-07-09T05:33:10;8.18;;;4.28;;
49890;SDS011;35780;55.568;37.492;2022-07-09T05:35:36;10.73;;;4.07;;
49890;SDS011;35780;55.568;37.492;2022-07-09T05:38:01;7.38;;;3.25;;
49890;SDS011;35780;55.568;37.492;2022-07-09T05:40:27;6.45;;;2.55;;
49890;SDS011;35780;55.568;37.492;2022-07-09T05:42:53;8.18;;;3.00;;
49890;SDS011;35780;55.568;37.492;2022-07-09T05:45:18;5.80;;;3.08;;
49890;SDS011;35780;55.568;37.492;2022-07-09T05:47:44;5.10;;;2.50;;
49890;SDS011;35780;55.568;37.492;2022-07-09T05:50:09;8.85;;;2.72;;
49890;SDS011;35780;55.568;37.492;2022-07-09T05:52:35;5.13;;;2.38;;
49890;SDS011;35780;55.568;37.492;2022-07-09T05:55:01;12.82;;;2.25;;
49890;SDS011;35780;55.568;37.492;2022-07-09T05:57:28;6.40;;;3.10;;
49890;SDS011;35780;55.568;37.492;2022-07-09T05:59:54;8.15;;;2.70;;
49890;SDS011;35780;55.568;37.492;2022-07-09T06:02:20;4.60;;;2.25;;
49890;SDS011;35780;55.568;37.492;2022-07-09T06:04:46;4.65;;;2.28;;
49890;SDS011;35780;55.568;37.492;2022-07-09T06:07:12;4.30;;;2.22;;
49890;SDS011;35780;55.568;37.492;2022-07-09T06:09:38;7.72;;;2.20;;
49890;SDS011;35780;55.568;37.492;2022-07-09T06:12:04;4.13;;;1.70;;
49890;SDS011;35780;55.568;37.492;2022-07-09T06:14:30;5.85;;;2.00;;
49890;SDS011;35780;55.568;37.492;2022-07-09T06:16:55;2.08;;;1.60;;
49890;SDS011;35780;55.568;37.492;2022-07-09T06:19:21;3.60;;;1.92;;
49890;SDS011;35780;55.568;37.492;2022-07-09T06:21:47;3.38;;;1.70;;
49890;SDS011;35780;55.568;37.492;2022-07-09T06:24:12;4.90;;;1.90;;
49890;SDS011;35780;55.568;37.492;2022-07-09T06:26:38;2.72;;;1.80;;
49890;SDS011;35780;55.568;37.492;2022-07-09T06:29:03;3.25;;;1.90;;
49890;SDS011;35780;55.568;37.492;2022-07-09T06:31:29;3.75;;;2.33;;
49890;SDS011;35780;55.568;37.492;2022-07-09T06:33:55;4.57;;;2.70;;
49890;SDS011;35780;55.568;37.492;2022-07-09T06:36:22;4.93;;;2.88;;
49890;SDS011;35780;55.568;37.492;2022-07-09T06:38:47;5.55;;;2.80;;
49890;SDS011;35780;55.568;37.492;2022-07-09T06:41:32;4.97;;;2.50;;
49890;SDS011;35780;55.568;37.492;2022-07-09T06:43:58;4.65;;;2.50;;
49890;SDS011;35780;55.568;37.492;2022-07-09T06:46:23;4.80;;;2.67;;
49890;SDS011;35780;55.568;37.492;2022-07-09T06:48:49;6.47;;;2.17;;
49890;SDS011;35780;55.568;37.492;2022-07-09T06:51:14;8.77;;;4.57;;
49890;SDS011;35780;55.568;37.492;2022-07-09T06:53:40;24.13;;;4.75;;
49890;SDS011;35780;55.568;37.492;2022-07-09T06:56:06;4.93;;;2.70;;
49890;SDS011;35780;55.568;37.492;2022-07-09T06:58:31;3.97;;;2.80;;
49890;SDS011;35780;55.568;37.492;2022-07-09T07:00:57;6.68;;;2.67;;
49890;SDS011;35780;55.568;37.492;2022-07-09T07:03:23;6.70;;;4.18;;
49890;SDS011;35780;55.568;37.492;2022-07-09T07:05:48;4.85;;;2.25;;
49890;SDS011;35780;55.568;37.492;2022-07-09T07:08:14;3.55;;;2.10;;
49890;SDS011;35780;55.568;37.492;2022-07-09T07:10:39;4.32;;;2.63;;
49890;SDS011;35780;55.568;37.492;2022-07-09T07:13:05;4.88;;;2.50;;
49890;SDS011;35780;55.568;37.492;2022-07-09T07:15:31;4.68;;;2.38;;
49890;SDS011;35780;55.568;37.492;2022-07-09T07:17:56;5.65;;;2.55;;
49890;SDS011;35780;55.568;37.492;2022-07-09T07:20:22;7.20;;;4.15;;
49890;SDS011;35780;55.568;37.492;2022-07-09T07:22:50;7.80;;;2.83;;
49890;SDS011;35780;55.568;37.492;2022-07-09T07:25:16;5.32;;;2.60;;
49890;SDS011;35780;55.568;37.492;2022-07-09T07:27:41;5.07;;;3.22;;
49890;SDS011;35780;55.568;37.492;2022-07-09T07:30:07;9.40;;;4.03;;
49890;SDS011;35780;55.568;37.492;2022-07-09T07:32:33;7.45;;;3.72;;
49890;SDS011;35780;55.568;37.492;2022-07-09T07:34:59;11.48;;;4.65;;
49890;SDS011;35780;55.568;37.492;2022-07-09T07:37:25;8.27;;;3.97;;
49890;SDS011;35780;55.568;37.492;2022-07-09T07:39:51;8.98;;;4.03;;
49890;SDS011;35780;55.568;37.492;2022-07-09T07:42:16;7.85;;;3.67;;
49890;SDS011;35780;55.568;37.492;2022-07-09T07:44:42;5.68;;;3.50;;
49890;SDS011;35780;55.568;37.492;2022-07-09T07:47:07;7.38;;;3.17;;
49890;SDS011;35780;55.568;37.492;2022-07-09T07:49:33;12.10;;;4.22;;
49890;SDS011;35780;55.568;37.492;2022-07-09T07:51:59;9.88;;;3.90;;
49890;SDS011;35780;55.568;37.492;2022-07-09T07:54:24;5.93;;;3.80;;
49890;SDS011;35780;55.568;37.492;2022-07-09T07:56:50;7.63;;;3.85;;
49890;SDS011;35780;55.568;37.492;2022-07-09T07:59:16;7.32;;;4.30;;
49890;SDS011;35780;55.568;37.492;2022-07-09T08:01:42;10.35;;;4.63;;
49890;SDS011;35780;55.568;37.492;2022-07-09T08:04:08;7.85;;;3.92;;
49890;SDS011;35780;55.568;37.492;2022-07-09T08:06:34;12.30;;;4.43;;
49890;SDS011;35780;55.568;37.492;2022-07-09T08:09:01;11.23;;;3.50;;
49890;SDS011;35780;55.568;37.492;2022-07-09T08:11:27;8.35;;;3.83;;
49890;SDS011;35780;55.568;37.492;2022-07-09T08:13:53;7.25;;;3.30;;
49890;SDS011;35780;55.568;37.492;2022-07-09T08:16:18;5.30;;;2.88;;
49890;SDS011;35780;55.568;37.492;2022-07-09T08:18:45;5.28;;;2.70;;
49890;SDS011;35780;55.568;37.492;2022-07-09T08:21:11;6.72;;;3.00;;
49890;SDS011;35780;55.568;37.492;2022-07-09T08:23:36;9.55;;;2.80;;
49890;SDS011;35780;55.568;37.492;2022-07-09T08:26:23;5.30;;;3.20;;
49890;SDS011;35780;55.568;37.492;2022-07-09T08:28:50;6.35;;;3.22;;
49890;SDS011;35780;55.568;37.492;2022-07-09T08:31:16;5.80;;;2.80;;
49890;SDS011;35780;55.568;37.492;2022-07-09T08:33:43;4.38;;;2.75;;
49890;SDS011;35780;55.568;37.492;2022-07-09T08:36:09;5.65;;;2.95;;
49890;SDS011;35780;55.568;37.492;2022-07-09T08:38:35;3.85;;;2.20;;
49890;SDS011;35780;55.568;37.492;2022-07-09T08:41:00;5.82;;;2.30;;
49890;SDS011;35780;55.568;37.492;2022-07-09T08:43:28;4.95;;;2.33;;
49890;SDS011;35780;55.568;37.492;2022-07-09T08:45:59;5.55;;;2.10;;
49890;SDS011;35780;55.568;37.492;2022-07-09T08:48:25;5.80;;;3.10;;
49890;SDS011;35780;55.568;37.492;2022-07-09T08:50:51;7.10;;;2.63;;
49890;SDS011;35780;55.568;37.492;2022-07-09T08:53:17;4.28;;;2.25;;
49890;SDS011;35780;55.568;37.492;2022-07-09T08:55:46;4.45;;;2.63;;
49890;SDS011;35780;55.568;37.492;2022-07-09T08:58:13;4.88;;;2.35;;
49890;SDS011;35780;55.568;37.492;2022-07-09T09:00:42;5.82;;;1.90;;
49890;SDS011;35780;55.568;37.492;2022-07-09T09:03:07;7.88;;;2.35;;
49890;SDS011;35780;55.568;37.492;2022-07-09T09:05:33;3.00;;;1.92;;
49890;SDS011;35780;55.568;37.492;2022-07-09T09:07:59;3.88;;;2.30;;
49890;SDS011;35780;55.568;37.492;2022-07-09T09:10:27;4.13;;;2.00;;
49890;SDS011;35780;55.568;37.492;2022-07-09T09:12:59;4.68;;;2.50;;
49890;SDS011;35780;55.568;37.492;2022-07-09T09:15:26;8.38;;;2.70;;
49890;SDS011;35780;55.568;37.492;2022-07-09T09:17:52;8.85;;;2.85;;
49890;SDS011;35780;55.568;37.492;2022-07-09T09:20:18;6.07;;;2.78;;
49890;SDS011;35780;55.568;37.492;2022-07-09T09:22:45;10.35;;;3.10;;
49890;SDS011;35780;55.568;37.492;2022-07-09T09:25:20;5.07;;;3.05;;
49890;SDS011;35780;55.568;37.492;2022-07-09T09:27:53;7.50;;;3.40;;
49890;SDS011;35780;55.568;37.492;2022-07-09T09:30:19;10.32;;;4.35;;
49890;SDS011;35780;55.568;37.492;2022-07-09T09:32:53;6.28;;;2.83;;
49890;SDS011;35780;55.568;37.492;2022-07-09T09:35:26;10.25;;;3.30;;
49890;SDS011;35780;55.568;37.492;2022-07-09T09:37:52;6.20;;;2.65;;
49890;SDS011;35780;55.568;37.492;2022-07-09T09:40:18;3.95;;;2.50;;
49890;SDS011;35780;55.568;37.492;2022-07-09T09:42:44;9.20;;;3.08;;
49890;SDS011;35780;55.568;37.492;2022-07-09T09:45:13;4.47;;;2.50;;
49890;SDS011;35780;55.568;37.492;2022-07-09T09:47:43;6.45;;;2.83;;
49890;SDS011;35780;55.568;37.492;2022-07-09T09:50:12;11.60;;;3.47;;
49890;SDS011;35780;55.568;37.492;2022-07-09T09:52:45;5.07;;;2.70;;
49890;SDS011;35780;55.568;37.492;2022-07-09T09:55:12;5.13;;;2.20;;
49890;SDS011;35780;55.568;37.492;2022-07-09T09:57:38;7.03;;;3.92;;
49890;SDS011;35780;55.568;37.492;2022-07-09T10:00:04;5.55;;;3.03;;
49890;SDS011;35780;55.568;37.492;2022-07-09T10:02:31;5.35;;;3.38;;
49890;SDS011;35780;55.568;37.492;2022-07-09T10:04:58;4.93;;;3.17;;
49890;SDS011;35780;55.568;37.492;2022-07-09T10:07:24;7.03;;;3.20;;
49890;SDS011;35780;55.568;37.492;2022-07-09T10:09:53;5.28;;;3.25;;
49890;SDS011;35780;55.568;37.492;2022-07-09T10:12:30;5.50;;;3.25;;
49890;SDS011;35780;55.568;37.492;2022-07-09T10:14:58;6.00;;;3.55;;
49890;SDS011;35780;55.568;37.492;2022-07-09T10:17:25;8.82;;;3.83;;
49890;SDS011;35780;55.568;37.492;2022-07-09T10:19:52;6.05;;;3.72;;
49890;SDS011;35780;55.568;37.492;2022-07-09T10:22:20;7.22;;;3.75;;
49890;SDS011;35780;55.568;37.492;2022-07-09T10:24:49;7.88;;;4.00;;
49890;SDS011;35780;55.568;37.492;2022-07-09T10:27:15;10.80;;;4.53;;
49890;SDS011;35780;55.568;37.492;2022-07-09T10:29:54;8.32;;;4.20;;
49890;SDS011;35780;55.568;37.492;2022-07-09T10:32:27;6.32;;;4.78;;
49890;SDS011;35780;55.568;37.492;2022-07-09T10:34:58;10.85;;;3.90;;
49890;SDS011;35780;55.568;37.492;2022-07-09T10:40:15;8.45;;;4.65;;
49890;SDS011;35780;55.568;37.492;2022-07-09T10:42:45;7.28;;;4.53;;
49890;SDS011;35780;55.568;37.492;2022-07-09T10:45:25;8.77;;;4.90;;
49890;SDS011;35780;55.568;37.492;2022-07-09T10:47:53;10.65;;;5.15;;
49890;SDS011;35780;55.568;37.492;2022-07-09T10:50:20;13.95;;;5.93;;
49890;SDS011;35780;55.568;37.492;2022-07-09T10:52:46;7.43;;;5.15;;
49890;SDS011;35780;55.568;37.492;2022-07-09T10:55:14;11.20;;;5.30;;
49890;SDS011;35780;55.568;37.492;2022-07-09T10:57:41;8.45;;;5.38;;
49890;SDS011;35780;55.568;37.492;2022-07-09T11:00:07;8.60;;;5.38;;
49890;SDS011;35780;55.568;37.492;2022-07-09T11:02:33;8.95;;;5.68;;
49890;SDS011;35780;55.568;37.492;2022-07-09T11:04:58;10.98;;;5.20;;
49890;SDS011;35780;55.568;37.492;2022-07-09T11:07:24;9.05;;;5.13;;
49890;SDS011;35780;55.568;37.492;2022-07-09T11:09:51;12.07;;;5.07;;
49890;SDS011;35780;55.568;37.492;2022-07-09T11:12:17;11.73;;;4.90;;
49890;SDS011;35780;55.568;37.492;2022-07-09T11:14:44;8.73;;;5.05;;
49890;SDS011;35780;55.568;37.492;2022-07-09T11:17:14;8.38;;;4.63;;
49890;SDS011;35780;55.568;37.492;2022-07-09T11:19:43;10.90;;;4.95;;
49890;SDS011;35780;55.568;37.492;2022-07-09T11:22:09;7.80;;;4.82;;
49890;SDS011;35780;55.568;37.492;2022-07-09T11:24:35;9.77;;;4.75;;
49890;SDS011;35780;55.568;37.492;2022-07-09T11:27:07;11.75;;;4.65;;
49890;SDS011;35780;55.568;37.492;2022-07-09T11:29:36;9.77;;;3.90;;
49890;SDS011;35780;55.568;37.492;2022-07-09T11:32:02;7.40;;;3.90;;
49890;SDS011;35780;55.568;37.492;2022-07-09T11:34:28;5.07;;;3.38;;
49890;SDS011;35780;55.568;37.492;2022-07-09T11:36:58;7.05;;;3.58;;
49890;SDS011;35780;55.568;37.492;2022-07-09T11:39:31;7.50;;;3.38;;
49890;SDS011;35780;55.568;37.492;2022-07-09T11:41:59;12.68;;;3.60;;
49890;SDS011;35780;55.568;37.492;2022-07-09T11:44:29;5.85;;;3.50;;
49890;SDS011;35780;55.568;37.492;2022-07-09T11:47:08;10.10;;;4.20;;
49890;SDS011;35780;55.568;37.492;2022-07-09T11:49:41;8.05;;;3.60;;
49890;SDS011;35780;55.568;37.492;2022-07-09T11:52:20;7.43;;;4.50;;
49890;SDS011;35780;55.568;37.492;2022-07-09T11:54:56;10.68;;;4.60;;
49890;SDS011;35780;55.568;37.492;2022-07-09T11:57:30;8.15;;;4.05;;
49890;SDS011;35780;55.568;37.492;2022-07-09T11:59:57;13.07;;;5.35;;
49890;SDS011;35780;55.568;37.492;2022-07-09T12:04:55;9.48;;;4.50;;
49890;SDS011;35780;55.568;37.492;2022-07-09T12:07:21;8.48;;;4.50;;
49890;SDS011;35780;55.568;37.492;2022-07-09T12:09:56;9.00;;;4.18;;
49890;SDS011;35780;55.568;37.492;2022-07-09T12:12:26;11.50;;;4.25;;
49890;SDS011;35780;55.568;37.492;2022-07-09T12:14:52;7.45;;;4.35;;
49890;SDS011;35780;55.568;37.492;2022-07-09T12:17:22;6.13;;;4.07;;
49890;SDS011;35780;55.568;37.492;2022-07-09T12:19:52;5.22;;;3.97;;
49890;SDS011;35780;55.568;37.492;2022-07-09T12:22:19;8.85;;;4.18;;
49890;SDS011;35780;55.568;37.492;2022-07-09T12:24:46;5.63;;;4.20;;
49890;SDS011;35780;55.568;37.492;2022-07-09T12:27:12;6.82;;;4.25;;
49890;SDS011;35780;55.568;37.492;2022-07-09T12:29:38;9.40;;;4.03;;
49890;SDS011;35780;55.568;37.492;2022-07-09T12:32:04;6.43;;;4.22;;
49890;SDS011;35780;55.568;37.492;2022-07-09T12:34:29;10.27;;;4.43;;
49890;SDS011;35780;55.568;37.492;2022-07-09T12:36:56;7.43;;;3.83;;
49890;SDS011;35780;55.568;37.492;2022-07-09T12:39:21;8.23;;;3.40;;
49890;SDS011;35780;55.568;37.492;2022-07-09T12:41:47;5.50;;;3.28;;
49890;SDS011;35780;55.568;37.492;2022-07-09T12:44:12;6.32;;;3.55;;
49890;SDS011;35780;55.568;37.492;2022-07-09T12:46:38;6.88;;;3.65;;
49890;SDS011;35780;55.568;37.492;2022-07-09T12:49:04;7.20;;;4.00;;
49890;SDS011;35780;55.568;37.492;2022-07-09T12:51:29;7.00;;;3.75;;
49890;SDS011;35780;55.568;37.492;2022-07-09T12:53:55;10.60;;;4.22;;
49890;SDS011;35780;55.568;37.492;2022-07-09T12:56:20;9.75;;;4.13;;
49890;SDS011;35780;55.568;37.492;2022-07-09T12:58:46;8.70;;;3.80;;
49890;SDS011;35780;55.568;37.492;2022-07-09T13:01:12;7.53;;;4.18;;
49890;SDS011;35780;55.568;37.492;2022-07-09T13:03:38;6.85;;;3.65;;
49890;SDS011;35780;55.568;37.492;2022-07-09T13:06:04;7.38;;;4.38;;
49890;SDS011;35780;55.568;37.492;2022-07-09T13:08:50;6.32;;;4.13;;
49890;SDS011;35780;55.568;37.492;2022-07-09T13:11:15;7.97;;;4.25;;
49890;SDS011;35780;55.568;37.492;2022-07-09T13:13:41;7.00;;;4.15;;
49890;SDS011;35780;55.568;37.492;2022-07-09T13:16:07;5.70;;;4.68;;
49890;SDS011;35780;55.568;37.492;2022-07-09T13:18:32;9.25;;;5.07;;
49890;SDS011;35780;55.568;37.492;2022-07-09T13:20:58;7.68;;;5.22;;
49890;SDS011;35780;55.568;37.492;2022-07-09T13:23:23;9.35;;;5.38;;
49890;SDS011;35780;55.568;37.492;2022-07-09T13:25:49;8.60;;;5.22;;
49890;SDS011;35780;55.568;37.492;2022-07-09T13:28:15;9.25;;;5.80;;
49890;SDS011;35780;55.568;37.492;2022-07-09T13:30:40;8.27;;;5.00;;
49890;SDS011;35780;55.568;37.492;2022-07-09T13:33:06;9.38;;;5.00;;
49890;SDS011;35780;55.568;37.492;2022-07-09T13:35:32;6.78;;;5.10;;
49890;SDS011;35780;55.568;37.492;2022-07-09T13:37:57;7.57;;;5.18;;
49890;SDS011;35780;55.568;37.492;2022-07-09T13:40:24;6.28;;;5.05;;
49890;SDS011;35780;55.568;37.492;2022-07-09T13:42:49;6.10;;;5.20;;
49890;SDS011;35780;55.568;37.492;2022-07-09T13:45:15;6.53;;;5.00;;
49890;SDS011;35780;55.568;37.492;2022-07-09T13:47:41;7.22;;;5.25;;
49890;SDS011;35780;55.568;37.492;2022-07-09T13:50:07;7.20;;;5.25;;
49890;SDS011;35780;55.568;37.492;2022-07-09T13:52:32;7.47;;;5.90;;
49890;SDS011;35780;55.568;37.492;2022-07-09T13:54:58;6.85;;;4.88;;
49890;SDS011;35780;55.568;37.492;2022-07-09T13:57:23;16.17;;;5.13;;
49890;SDS011;35780;55.568;37.492;2022-07-09T13:59:49;6.88;;;4.57;;
49890;SDS011;35780;55.568;37.492;2022-07-09T14:02:15;9.48;;;4.60;;
49890;SDS011;35780;55.568;37.492;2022-07-09T14:04:40;7.07;;;4.38;;
49890;SDS011;35780;55.568;37.492;2022-07-09T14:07:06;8.45;;;4.55;;
49890;SDS011;35780;55.568;37.492;2022-07-09T14:09:32;7.85;;;4.75;;
49890;SDS011;35780;55.568;37.492;2022-07-09T14:11:57;9.00;;;4.55;;
49890;SDS011;35780;55.568;37.492;2022-07-09T14:14:23;6.43;;;4.35;;
49890;SDS011;35780;55.568;37.492;2022-07-09T14:16:48;8.70;;;4.05;;
49890;SDS011;35780;55.568;37.492;2022-07-09T14:19:14;6.25;;;4.50;;
49890;SDS011;35780;55.568;37.492;2022-07-09T14:21:40;5.68;;;3.85;;
49890;SDS011;35780;55.568;37.492;2022-07-09T14:24:05;8.38;;;4.00;;
49890;SDS011;35780;55.568;37.492;2022-07-09T14:26:31;5.95;;;4.30;;
49890;SDS011;35780;55.568;37.492;2022-07-09T14:28:57;10.30;;;4.32;;
49890;SDS011;35780;55.568;37.492;2022-07-09T14:31:22;5.38;;;4.00;;
49890;SDS011;35780;55.568;37.492;2022-07-09T14:33:49;7.53;;;4.75;;